^^
Datos históricos de la estación: Murcia-Puente Tocinos
Diario Informe para Junio 11, 2019 Unidades:  Ambas    Ingés   Métrico
Diario Semanal Mensual Anual
  Máxima: Mínima: Promedio:
Temperatura: 55 °F /  12.8 °C 36.1 °F /  2.3 °C 43.9 °F /  6.6 °C
Punto de rocio: 32.2 °F /  0.1 °C 18.1 °F /  -7.7 °C 23.7 °F /  -4.6 °C
Humedad: 69.8% 24% 47%
Velocidad viento: 6.2mph /  10km/h - 3.6mph /  5.8km/h
Racha viento: 13mph /  20.9km/h - -
Viento- - SO
Presión: 30.3 in /  1026.6 hPa 30.1 in /  1020.2 hPa -
Precipitación: 0 in /  0.0 mm    
 
 
Tabla de datos para Junio 11, 2019
Hora Temperatura Punto de rocio Presión Viento Velocidad viento Racha viento Humedad Intensidad lluvia(por hora) Nubes
00:04 42.3 °F /  5.7 °C 32.2 °F /  0.1 °C 30.1in /  1020.3hPa SE 3.6mph /  5.8km/h 5.9mph /  9.5km/h 67% 0in /  0.0mm
00:09 41.9 °F /  5.5 °C 31.6 °F /  -0.2 °C 30.1in /  1020.3hPa Sur 3.6mph /  5.8km/h 6.9mph /  11.1km/h 67% 0in /  0.0mm
00:14 41.5 °F /  5.3 °C 31.6 °F /  -0.2 °C 30.1in /  1020.3hPa SSO 3.6mph /  5.8km/h 9.2mph /  14.8km/h 67.8% 0in /  0.0mm
00:19 41.4 °F /  5.2 °C 31.1 °F /  -0.5 °C 30.1in /  1020.3hPa SSO 4.6mph /  7.4km/h 9mph /  14.5km/h 66.8% 0in /  0.0mm
00:24 41.4 °F /  5.2 °C 30.7 °F /  -0.7 °C 30.1in /  1020.2hPa SSO 5.4mph /  8.7km/h 9mph /  14.5km/h 65.6% 0in /  0.0mm
00:29 41.4 °F /  5.2 °C 30.2 °F /  -1 °C 30.1in /  1020.2hPa Sur 5mph /  8.1km/h 8.1mph /  13km/h 64.3% 0in /  0.0mm
00:34 41.4 °F /  5.2 °C 29.8 °F /  -1.2 °C 30.1in /  1020.2hPa SSE 4.7mph /  7.6km/h 8.1mph /  13km/h 63.2% 0in /  0.0mm
00:39 41.2 °F /  5.1 °C 29.8 °F /  -1.2 °C 30.1in /  1020.2hPa Sur 5.1mph /  8.2km/h 10.7mph /  17.2km/h 63.8% 0in /  0.0mm
00:44 40.6 °F /  4.8 °C 29.7 °F /  -1.3 °C 30.1in /  1020.2hPa Sur 5.4mph /  8.7km/h 11mph /  17.7km/h 64.6% 0in /  0.0mm
00:49 40.5 °F /  4.7 °C 29.7 °F /  -1.3 °C 30.1in /  1020.2hPa Sur 5.7mph /  9.2km/h 9mph /  14.5km/h 65% 0in /  0.0mm
00:54 40.5 °F /  4.7 °C 29.7 °F /  -1.3 °C 30.1in /  1020.2hPa SSO 5.9mph /  9.5km/h 9.2mph /  14.8km/h 65% 0in /  0.0mm
00:59 40.5 °F /  4.7 °C 29.7 °F /  -1.3 °C 30.1in /  1020.2hPa SSO 5.2mph /  8.3km/h 9mph /  14.5km/h 65% 0in /  0.0mm
01:04 40.6 °F /  4.8 °C 29.5 °F /  -1.4 °C 30.1in /  1020.4hPa SSO 4.7mph /  7.6km/h 6mph /  9.7km/h 64.1% 0in /  0.0mm
01:09 40.6 °F /  4.8 °C 29.5 °F /  -1.4 °C 30.1in /  1020.4hPa Sur 4.1mph /  6.6km/h 6.9mph /  11.1km/h 64% 0in /  0.0mm
01:14 40.8 °F /  4.9 °C 29.3 °F /  -1.5 °C 30.1in /  1020.4hPa SSO 3.6mph /  5.8km/h 8.1mph /  13km/h 63.2% 0in /  0.0mm
01:19 40.8 °F /  4.9 °C 28.8 °F /  -1.8 °C 30.1in /  1020.4hPa SO 4.5mph /  7.3km/h 8.1mph /  13km/h 61.9% 0in /  0.0mm
01:24 41.2 °F /  5.1 °C 28.8 °F /  -1.8 °C 30.1in /  1020.4hPa OSO 5.2mph /  8.4km/h 8mph /  12.9km/h 61% 0in /  0.0mm
01:29 41.4 °F /  5.2 °C 28.4 °F /  -2 °C 30.1in /  1020.4hPa OSO 4.7mph /  7.6km/h 8.1mph /  13km/h 59.9% 0in /  0.0mm
01:34 41.4 °F /  5.2 °C 28 °F /  -2.2 °C 30.1in /  1020.6hPa OSO 4.3mph /  6.9km/h 8.1mph /  13km/h 59% 0in /  0.0mm
01:39 41.2 °F /  5.1 °C 27.9 °F /  -2.3 °C 30.1in /  1020.6hPa OSO 3.7mph /  5.9km/h 5.8mph /  9.3km/h 59% 0in /  0.0mm
01:44 41 °F /  5 °C 27.9 °F /  -2.3 °C 30.1in /  1020.6hPa SSO 3.1mph /  5km/h 6.2mph /  10km/h 59% 0in /  0.0mm
01:49 41.2 °F /  5.1 °C 27.7 °F /  -2.4 °C 30.1in /  1020.6hPa SO 3.7mph /  6km/h 8.5mph /  13.7km/h 58.4% 0in /  0.0mm
01:54 41.2 °F /  5.1 °C 27.3 °F /  -2.6 °C 30.1in /  1020.6hPa SO 4.3mph /  6.9km/h 9mph /  14.5km/h 57.5% 0in /  0.0mm
01:59 41.2 °F /  5.1 °C 27.1 °F /  -2.7 °C 30.1in /  1020.6hPa OSO 4.5mph /  7.3km/h 8.1mph /  13km/h 57% 0in /  0.0mm
02:04 41.2 °F /  5.1 °C 27.1 °F /  -2.7 °C 30.1in /  1020.7hPa SO 4.7mph /  7.6km/h 6mph /  9.7km/h 57% 0in /  0.0mm
02:09 41.2 °F /  5.1 °C 27 °F /  -2.8 °C 30.1in /  1020.7hPa SO 3.8mph /  6.1km/h 6mph /  9.7km/h 56.9% 0in /  0.0mm
02:14 41.2 °F /  5.1 °C 26.8 °F /  -2.9 °C 30.1in /  1020.7hPa SO 3.1mph /  5km/h 6mph /  9.7km/h 56% 0in /  0.0mm
02:19 41.2 °F /  5.1 °C 26.8 °F /  -2.9 °C 30.2in /  1020.9hPa SO 3.1mph /  5km/h 5mph /  8km/h 56.2% 0in /  0.0mm
02:24 41.2 °F /  5.1 °C 27.1 °F /  -2.7 °C 30.2in /  1020.9hPa SSO 3.1mph /  5km/h 5mph /  8km/h 57.2% 0in /  0.0mm
02:29 40.8 °F /  4.9 °C 27.3 °F /  -2.6 °C 30.2in /  1020.9hPa Sur 2.4mph /  3.9km/h 5mph /  8km/h 58.2% 0in /  0.0mm
02:34 40.6 °F /  4.8 °C 28 °F /  -2.2 °C 30.2in /  1021.0hPa SSE 2mph /  3.2km/h 3.6mph /  5.8km/h 60.3% 0in /  0.0mm
02:39 40.3 °F /  4.6 °C 28.4 °F /  -2 °C 30.2in /  1021.0hPa ESE 1.7mph /  2.7km/h 4mph /  6.4km/h 62.2% 0in /  0.0mm
02:44 39.7 °F /  4.3 °C 28.2 °F /  -2.1 °C 30.2in /  1021.0hPa SE 1.4mph /  2.2km/h 3.6mph /  5.8km/h 63.2% 0in /  0.0mm
02:49 39.4 °F /  4.1 °C 27.7 °F /  -2.4 °C 30.2in /  1021.2hPa OSO 1.6mph /  2.6km/h 4.6mph /  7.4km/h 62.6% 0in /  0.0mm
02:54 39.2 °F /  4 °C 28.2 °F /  -2.1 °C 30.2in /  1021.2hPa OSO 1.8mph /  2.9km/h 5mph /  8km/h 64.4% 0in /  0.0mm
02:59 39 °F /  3.9 °C 28.4 °F /  -2 °C 30.2in /  1021.2hPa OSO 1.8mph /  2.9km/h 4.6mph /  7.4km/h 65.5% 0in /  0.0mm
03:04 38.7 °F /  3.7 °C 28 °F /  -2.2 °C 30.2in /  1021.4hPa SO 1.8mph /  2.9km/h 5.2mph /  8.4km/h 65.2% 0in /  0.0mm
03:09 38.7 °F /  3.7 °C 27.7 °F /  -2.4 °C 30.2in /  1021.4hPa SO 2.4mph /  3.9km/h 5mph /  8km/h 64.4% 0in /  0.0mm
03:14 38.8 °F /  3.8 °C 27.7 °F /  -2.4 °C 30.2in /  1021.4hPa SO 2.9mph /  4.6km/h 4.3mph /  6.9km/h 64.1% 0in /  0.0mm
03:19 38.8 °F /  3.8 °C 26.8 °F /  -2.9 °C 30.2in /  1021.8hPa OSO 2.3mph /  3.7km/h 5mph /  8km/h 61.7% 0in /  0.0mm
03:24 39 °F /  3.9 °C 26.2 °F /  -3.2 °C 30.2in /  1021.8hPa SO 1.8mph /  2.9km/h 6.9mph /  11.1km/h 59.5% 0in /  0.0mm
03:29 39.4 °F /  4.1 °C 25.9 °F /  -3.4 °C 30.2in /  1021.8hPa SO 3mph /  4.9km/h 7mph /  11.3km/h 58.3% 0in /  0.0mm
03:34 39.4 °F /  4.1 °C 25.9 °F /  -3.4 °C 30.2in /  1021.8hPa OSO 4mph /  6.5km/h 6mph /  9.7km/h 58.1% 0in /  0.0mm
03:39 39.4 °F /  4.1 °C 26.8 °F /  -2.9 °C 30.2in /  1021.8hPa SSO 3mph /  4.9km/h 5.9mph /  9.5km/h 60.3% 0in /  0.0mm
03:44 39 °F /  3.9 °C 27.9 °F /  -2.3 °C 30.2in /  1021.8hPa SSE 2.4mph /  3.9km/h 6mph /  9.7km/h 64% 0in /  0.0mm
03:49 38.5 °F /  3.6 °C 28 °F /  -2.2 °C 30.2in /  1021.9hPa Sur 2.8mph /  4.5km/h 6mph /  9.7km/h 66.1% 0in /  0.0mm
03:54 37.9 °F /  3.3 °C 28 °F /  -2.2 °C 30.2in /  1021.9hPa Sur 3.1mph /  5km/h 5.2mph /  8.4km/h 67.4% 0in /  0.0mm
03:59 37.6 °F /  3.1 °C 28.2 °F /  -2.1 °C 30.2in /  1021.9hPa Sur 3.1mph /  5km/h 5mph /  8km/h 68.5% 0in /  0.0mm
04:04 37.2 °F /  2.9 °C 28 °F /  -2.2 °C 30.2in /  1021.9hPa Sur 3.1mph /  5km/h 5.8mph /  9.3km/h 69% 0in /  0.0mm
04:09 37.2 °F /  2.9 °C 28 °F /  -2.2 °C 30.2in /  1021.7hPa Sur 3mph /  4.8km/h 6mph /  9.7km/h 69.1% 0in /  0.0mm
04:14 37.2 °F /  2.9 °C 28 °F /  -2.2 °C 30.2in /  1021.7hPa Sur 2.9mph /  4.7km/h 5mph /  8km/h 69% 0in /  0.0mm
04:19 37.2 °F /  2.9 °C 28.4 °F /  -2 °C 30.2in /  1021.7hPa Sur 3mph /  4.8km/h 5mph /  8km/h 69.8% 0in /  0.0mm
04:24 37.4 °F /  3 °C 28.2 °F /  -2.1 °C 30.2in /  1021.7hPa Sur 3.1mph /  5km/h 5mph /  8km/h 69.2% 0in /  0.0mm
04:29 37.6 °F /  3.1 °C 28.2 °F /  -2.1 °C 30.2in /  1021.7hPa Sur 3mph /  4.8km/h 5mph /  8km/h 69% 0in /  0.0mm
04:34 37.8 °F /  3.2 °C 28.2 °F /  -2.1 °C 30.2in /  1021.7hPa Sur 2.9mph /  4.7km/h 4.7mph /  7.6km/h 68.6% 0in /  0.0mm
04:39 37.8 °F /  3.2 °C 28 °F /  -2.2 °C 30.2in /  1021.6hPa Sur 2.9mph /  4.7km/h 5mph /  8km/h 68% 0in /  0.0mm
04:44 37.8 °F /  3.2 °C 28 °F /  -2.2 °C 30.2in /  1021.6hPa Sur 2.9mph /  4.7km/h 5mph /  8km/h 67.8% 0in /  0.0mm
04:49 37.9 °F /  3.3 °C 28 °F /  -2.2 °C 30.2in /  1021.6hPa Sur 2.3mph /  3.7km/h 4.6mph /  7.4km/h 67.3% 0in /  0.0mm
04:54 37.9 °F /  3.3 °C 27.9 °F /  -2.3 °C 30.2in /  1021.6hPa Sur 1.8mph /  2.9km/h 5mph /  8km/h 66.8% 0in /  0.0mm
04:59 38.1 °F /  3.4 °C 27.5 °F /  -2.5 °C 30.2in /  1021.6hPa SSO 1.9mph /  3.1km/h 5.2mph /  8.4km/h 65.6% 0in /  0.0mm
05:04 37.9 °F /  3.3 °C 27.1 °F /  -2.7 °C 30.2in /  1021.6hPa SO 2mph /  3.2km/h 5.9mph /  9.5km/h 65% 0in /  0.0mm
05:09 37.8 °F /  3.2 °C 27 °F /  -2.8 °C 30.2in /  1021.3hPa OSO 2.9mph /  4.7km/h 6mph /  9.7km/h 65% 0in /  0.0mm
05:14 37.6 °F /  3.1 °C 26.8 °F /  -2.9 °C 30.2in /  1021.3hPa OSO 3.6mph /  5.8km/h 6mph /  9.7km/h 64.6% 0in /  0.0mm
05:19 37.6 °F /  3.1 °C 26.2 °F /  -3.2 °C 30.2in /  1021.4hPa SO 3.2mph /  5.1km/h 6.9mph /  11.1km/h 63.3% 0in /  0.0mm
05:24 37.6 °F /  3.1 °C 25.5 °F /  -3.6 °C 30.2in /  1021.4hPa SO 2.9mph /  4.7km/h 7mph /  11.3km/h 61.6% 0in /  0.0mm
05:29 37.8 °F /  3.2 °C 25.5 °F /  -3.6 °C 30.2in /  1021.4hPa SO 3.3mph /  5.3km/h 6mph /  9.7km/h 60.9% 0in /  0.0mm
05:34 37.9 °F /  3.3 °C 25.3 °F /  -3.7 °C 30.2in /  1021.4hPa SO 3.6mph /  5.8km/h 5.2mph /  8.4km/h 60% 0in /  0.0mm
05:39 37.9 °F /  3.3 °C 25.3 °F /  -3.7 °C 30.2in /  1021.4hPa SSO 3.6mph /  5.8km/h 5.2mph /  8.4km/h 60% 0in /  0.0mm
05:44 37.9 °F /  3.3 °C 25.3 °F /  -3.7 °C 30.2in /  1021.4hPa SSO 3.6mph /  5.8km/h 5mph /  8km/h 60% 0in /  0.0mm
05:49 37.9 °F /  3.3 °C 25 °F /  -3.9 °C 30.2in /  1021.4hPa SO 3.6mph /  5.8km/h 6.2mph /  10km/h 59.3% 0in /  0.0mm
05:54 37.9 °F /  3.3 °C 24.6 °F /  -4.1 °C 30.2in /  1021.4hPa SO 3.6mph /  5.8km/h 6.9mph /  11.1km/h 58.2% 0in /  0.0mm
05:59 38.1 °F /  3.4 °C 24.1 °F /  -4.4 °C 30.2in /  1021.4hPa SO 3.9mph /  6.2km/h 7mph /  11.3km/h 56.7% 0in /  0.0mm
06:04 38.3 °F /  3.5 °C 24.3 °F /  -4.3 °C 30.2in /  1021.6hPa SO 4mph /  6.5km/h 6mph /  9.7km/h 56.8% 0in /  0.0mm
06:09 38.3 °F /  3.5 °C 24.3 °F /  -4.3 °C 30.2in /  1021.6hPa SO 3.1mph /  5km/h 6mph /  9.7km/h 56.6% 0in /  0.0mm
06:14 38.5 °F /  3.6 °C 23.9 °F /  -4.5 °C 30.2in /  1021.6hPa SSO 2.4mph /  3.9km/h 6mph /  9.7km/h 55.8% 0in /  0.0mm
06:19 38.5 °F /  3.6 °C 23.7 °F /  -4.6 °C 30.2in /  1021.8hPa SSO 3mph /  4.9km/h 6mph /  9.7km/h 55% 0in /  0.0mm
06:24 38.5 °F /  3.6 °C 23.7 °F /  -4.6 °C 30.2in /  1021.8hPa SO 3.6mph /  5.8km/h 6mph /  9.7km/h 55% 0in /  0.0mm
06:29 38.7 °F /  3.7 °C 23.4 °F /  -4.8 °C 30.2in /  1021.8hPa OSO 3.6mph /  5.8km/h 5.9mph /  9.5km/h 54.1% 0in /  0.0mm
06:34 38.7 °F /  3.7 °C 23.4 °F /  -4.8 °C 30.2in /  1021.9hPa SO 3.6mph /  5.8km/h 6mph /  9.7km/h 54% 0in /  0.0mm
06:39 38.5 °F /  3.6 °C 23.2 °F /  -4.9 °C 30.2in /  1021.9hPa SO 3.6mph /  5.8km/h 6.2mph /  10km/h 53.6% 0in /  0.0mm
06:44 38.5 °F /  3.6 °C 23.2 °F /  -4.9 °C 30.2in /  1021.9hPa SO 3.6mph /  5.8km/h 6.9mph /  11.1km/h 53.6% 0in /  0.0mm
06:49 38.5 °F /  3.6 °C 22.8 °F /  -5.1 °C 30.2in /  1022.1hPa SO 4mph /  6.4km/h 7.4mph /  11.9km/h 53% 0in /  0.0mm
06:54 38.5 °F /  3.6 °C 23 °F /  -5 °C 30.2in /  1022.1hPa SO 4.3mph /  6.9km/h 7.6mph /  12.2km/h 53.3% 0in /  0.0mm
06:59 38.5 °F /  3.6 °C 22.8 °F /  -5.1 °C 30.2in /  1022.1hPa OSO 4.3mph /  6.9km/h 8.1mph /  13km/h 53% 0in /  0.0mm
07:04 38.5 °F /  3.6 °C 22.8 °F /  -5.1 °C 30.2in /  1022.3hPa OSO 4.3mph /  6.9km/h 8mph /  12.9km/h 53% 0in /  0.0mm
07:09 38.5 °F /  3.6 °C 22.6 °F /  -5.2 °C 30.2in /  1022.3hPa OSO 4.3mph /  6.9km/h 7mph /  11.3km/h 53% 0in /  0.0mm
07:14 38.1 °F /  3.4 °C 22.6 °F /  -5.2 °C 30.2in /  1022.3hPa Oeste 4.3mph /  6.9km/h 6.2mph /  10km/h 53.4% 0in /  0.0mm
07:19 37.6 °F /  3.1 °C 22.6 °F /  -5.2 °C 30.2in /  1022.4hPa Oeste 3.9mph /  6.3km/h 7.4mph /  11.9km/h 54.5% 0in /  0.0mm
07:24 37 °F /  2.8 °C 22.5 °F /  -5.3 °C 30.2in /  1022.4hPa Oeste 3.6mph /  5.8km/h 7mph /  11.3km/h 55% 0in /  0.0mm
07:29 36.9 °F /  2.7 °C 22.5 °F /  -5.3 °C 30.2in /  1022.4hPa OSO 4.2mph /  6.7km/h 7.4mph /  11.9km/h 55.8% 0in /  0.0mm
07:34 36.9 °F /  2.7 °C 22.3 °F /  -5.4 °C 30.2in /  1022.5hPa OSO 4.7mph /  7.6km/h 7mph /  11.3km/h 55% 0in /  0.0mm
07:39 36.9 °F /  2.7 °C 22.3 °F /  -5.4 °C 30.2in /  1022.5hPa OSO 4.3mph /  6.9km/h 7mph /  11.3km/h 55% 0in /  0.0mm
07:44 36.9 °F /  2.7 °C 22.3 °F /  -5.4 °C 30.2in /  1022.5hPa OSO 4mph /  6.5km/h 6mph /  9.7km/h 55.3% 0in /  0.0mm
07:49 36.9 °F /  2.7 °C 22.3 °F /  -5.4 °C 30.2in /  1022.6hPa OSO 3.4mph /  5.4km/h 5.2mph /  8.4km/h 55% 0in /  0.0mm
07:54 36.9 °F /  2.7 °C 22.3 °F /  -5.4 °C 30.2in /  1022.6hPa OSO 2.9mph /  4.7km/h 5mph /  8km/h 55% 0in /  0.0mm
07:59 36.9 °F /  2.7 °C 22.3 °F /  -5.4 °C 30.2in /  1022.6hPa OSO 2.9mph /  4.7km/h 5mph /  8km/h 55% 0in /  0.0mm
08:04 36.9 °F /  2.7 °C 22.3 °F /  -5.4 °C 30.2in /  1022.7hPa OSO 2.9mph /  4.6km/h 3.6mph /  5.8km/h 55% 0in /  0.0mm
08:09 36.9 °F /  2.7 °C 22.5 °F /  -5.3 °C 30.2in /  1022.7hPa OSO 2.4mph /  3.8km/h 4mph /  6.4km/h 55.7% 0in /  0.0mm
08:14 36.9 °F /  2.7 °C 22.6 °F /  -5.2 °C 30.2in /  1022.7hPa OSO 2mph /  3.2km/h 3mph /  4.8km/h 56.1% 0in /  0.0mm
08:19 36.9 °F /  2.7 °C 22.8 °F /  -5.1 °C 30.2in /  1022.9hPa OSO 0.9mph /  1.4km/h 2mph /  3.2km/h 56.5% 0in /  0.0mm
08:24 36.7 °F /  2.6 °C 22.6 °F /  -5.2 °C 30.2in /  1022.9hPa Calm   3.6mph /  5.8km/h 56.6% 0in /  0.0mm
08:29 36.5 °F /  2.5 °C 22.5 °F /  -5.3 °C 30.2in /  1022.9hPa OSO 0.7mph /  1.2km/h 4mph /  6.4km/h 56.5% 0in /  0.0mm
08:34 36.3 °F /  2.4 °C 22.5 °F /  -5.3 °C 30.2in /  1023.1hPa OSO 1.4mph /  2.2km/h 4mph /  6.4km/h 57% 0in /  0.0mm
08:39 36.3 °F /  2.4 °C 22.5 °F /  -5.3 °C 30.2in /  1023.1hPa OSO 1.7mph /  2.8km/h 4mph /  6.4km/h 57% 0in /  0.0mm
08:44 36.1 °F /  2.3 °C 22.5 °F /  -5.3 °C 30.2in /  1023.1hPa Oeste 2mph /  3.2km/h 4.7mph /  7.6km/h 57% 0in /  0.0mm
08:49 36.1 °F /  2.3 °C 22.6 °F /  -5.2 °C 30.2in /  1023.3hPa Oeste 2.2mph /  3.6km/h 5mph /  8km/h 57.4% 0in /  0.0mm
08:54 36.1 °F /  2.3 °C 22.5 °F /  -5.3 °C 30.2in /  1023.3hPa Oeste 2.4mph /  3.9km/h 5.4mph /  8.7km/h 57% 0in /  0.0mm
08:59 36.3 °F /  2.4 °C 22.1 °F /  -5.5 °C 30.2in /  1023.3hPa Oeste 2.9mph /  4.6km/h 6.2mph /  10km/h 56% 0in /  0.0mm
09:04 36.7 °F /  2.6 °C 21.7 °F /  -5.7 °C 30.2in /  1023.5hPa Oeste 3.1mph /  5km/h 6.2mph /  10km/h 54.8% 0in /  0.0mm
09:09 36.9 °F /  2.7 °C 21.6 °F /  -5.8 °C 30.2in /  1023.5hPa Oeste 3.6mph /  5.8km/h 6mph /  9.7km/h 53.8% 0in /  0.0mm
09:14 36.9 °F /  2.7 °C 21.2 °F /  -6 °C 30.2in /  1023.5hPa ONO 4mph /  6.5km/h 6mph /  9.7km/h 52.7% 0in /  0.0mm
09:19 37 °F /  2.8 °C 21 °F /  -6.1 °C 30.2in /  1023.7hPa ONO 3.8mph /  6.1km/h 6mph /  9.7km/h 52% 0in /  0.0mm
09:24 37 °F /  2.8 °C 20.8 °F /  -6.2 °C 30.2in /  1023.7hPa ONO 3.6mph /  5.8km/h 5.9mph /  9.5km/h 51.6% 0in /  0.0mm
09:29 37.2 °F /  2.9 °C 20.7 °F /  -6.3 °C 30.2in /  1023.7hPa Oeste 3.6mph /  5.8km/h 6.9mph /  11.1km/h 51% 0in /  0.0mm
09:34 37.2 °F /  2.9 °C 20.8 °F /  -6.2 °C 30.2in /  1023.9hPa Oeste 3.6mph /  5.8km/h 7mph /  11.3km/h 51% 0in /  0.0mm
09:39 37.6 °F /  3.1 °C 21 °F /  -6.1 °C 30.2in /  1023.9hPa Oeste 3.6mph /  5.8km/h 6mph /  9.7km/h 51% 0in /  0.0mm
09:44 37.8 °F /  3.2 °C 21.6 °F /  -5.8 °C 30.2in /  1023.9hPa Oeste 3.6mph /  5.8km/h 5mph /  8km/h 51.6% 0in /  0.0mm
09:49 38.1 °F /  3.4 °C 21.7 °F /  -5.7 °C 30.2in /  1024.2hPa ONO 3.2mph /  5.1km/h 5mph /  8km/h 51.1% 0in /  0.0mm
09:54 38.5 °F /  3.6 °C 21.9 °F /  -5.6 °C 30.2in /  1024.2hPa ONO 2.9mph /  4.7km/h 5mph /  8km/h 51% 0in /  0.0mm
09:59 39 °F /  3.9 °C 21.9 °F /  -5.6 °C 30.2in /  1024.2hPa OSO 2.6mph /  4.2km/h 7.4mph /  11.9km/h 50.1% 0in /  0.0mm
10:04 39.7 °F /  4.3 °C 21.2 °F /  -6 °C 30.3in /  1024.5hPa SSO 2.4mph /  3.9km/h 9.7mph /  15.6km/h 46.9% 0in /  0.0mm
10:09 40.5 °F /  4.7 °C 21.2 °F /  -6 °C 30.3in /  1024.5hPa SO 4mph /  6.5km/h 10mph /  16.1km/h 45.7% 0in /  0.0mm
10:14 40.8 °F /  4.9 °C 21 °F /  -6.1 °C 30.3in /  1024.5hPa SO 5.2mph /  8.4km/h 9.2mph /  14.8km/h 44.7% 0in /  0.0mm
10:19 41.2 °F /  5.1 °C 20.8 °F /  -6.2 °C 30.3in /  1024.6hPa SO 5.3mph /  8.5km/h 11.5mph /  18.5km/h 43.7% 0in /  0.0mm
10:24 41.4 °F /  5.2 °C 21 °F /  -6.1 °C 30.3in /  1024.6hPa SO 5.4mph /  8.7km/h 12.7mph /  20.4km/h 44% 0in /  0.0mm
10:29 41.4 °F /  5.2 °C 20.7 °F /  -6.3 °C 30.3in /  1024.6hPa OSO 5.7mph /  9.1km/h 13mph /  20.9km/h 43.4% 0in /  0.0mm
10:34 41.4 °F /  5.2 °C 21 °F /  -6.1 °C 30.3in /  1024.8hPa OSO 5.9mph /  9.5km/h 11mph /  17.7km/h 44% 0in /  0.0mm
10:39 41.4 °F /  5.2 °C 21 °F /  -6.1 °C 30.3in /  1024.8hPa OSO 5.7mph /  9.1km/h 9mph /  14.5km/h 44% 0in /  0.0mm
10:44 41.5 °F /  5.3 °C 21 °F /  -6.1 °C 30.3in /  1024.8hPa OSO 5.4mph /  8.7km/h 8mph /  12.9km/h 43.5% 0in /  0.0mm
10:49 42.1 °F /  5.6 °C 21 °F /  -6.1 °C 30.3in /  1025.0hPa SO 4.4mph /  7.1km/h 7mph /  11.3km/h 42.7% 0in /  0.0mm
10:54 42.4 °F /  5.8 °C 20.7 °F /  -6.3 °C 30.3in /  1025.0hPa OSO 3.6mph /  5.8km/h 9.2mph /  14.8km/h 41.6% 0in /  0.0mm
10:59 42.6 °F /  5.9 °C 20.5 °F /  -6.4 °C 30.3in /  1025.0hPa OSO 4.6mph /  7.4km/h 9mph /  14.5km/h 41% 0in /  0.0mm
11:04 43 °F /  6.1 °C 20.5 °F /  -6.4 °C 30.3in /  1025.1hPa OSO 5.2mph /  8.4km/h 8.1mph /  13km/h 40.2% 0in /  0.0mm
11:09 43.2 °F /  6.2 °C 20.5 °F /  -6.4 °C 30.3in /  1025.1hPa OSO 4.9mph /  7.9km/h 9.2mph /  14.8km/h 39.9% 0in /  0.0mm
11:14 43.5 °F /  6.4 °C 20.3 °F /  -6.5 °C 30.3in /  1025.1hPa OSO 4.7mph /  7.6km/h 9.2mph /  14.8km/h 39% 0in /  0.0mm
11:19 43.9 °F /  6.6 °C 20.3 °F /  -6.5 °C 30.3in /  1025.2hPa SO 5mph /  8km/h 11.5mph /  18.5km/h 38.5% 0in /  0.0mm
11:24 44.1 °F /  6.7 °C 19.9 °F /  -6.7 °C 30.3in /  1025.2hPa SO 5.2mph /  8.4km/h 12mph /  19.3km/h 37.8% 0in /  0.0mm
11:29 44.4 °F /  6.9 °C 20.1 °F /  -6.6 °C 30.3in /  1025.2hPa SO 5.8mph /  9.3km/h 11.5mph /  18.5km/h 37.6% 0in /  0.0mm
11:34 44.6 °F /  7 °C 19.9 °F /  -6.7 °C 30.3in /  1025.2hPa SO 6.2mph /  10km/h 12mph /  19.3km/h 37% 0in /  0.0mm
11:39 44.8 °F /  7.1 °C 20.1 °F /  -6.6 °C 30.3in /  1025.1hPa SO 6mph /  9.7km/h 10.4mph /  16.7km/h 36.9% 0in /  0.0mm
11:44 45 °F /  7.2 °C 19.6 °F /  -6.9 °C 30.3in /  1025.1hPa SSO 5.9mph /  9.5km/h 10mph /  16.1km/h 36% 0in /  0.0mm
11:49 45.3 °F /  7.4 °C 19.9 °F /  -6.7 °C 30.3in /  1025.1hPa SSO 5.6mph /  9km/h 9.2mph /  14.8km/h 36% 0in /  0.0mm
11:54 45.9 °F /  7.7 °C 20.3 °F /  -6.5 °C 30.3in /  1025.0hPa OSO 5.4mph /  8.7km/h 9mph /  14.5km/h 36% 0in /  0.0mm
11:59 46 °F /  7.8 °C 19.6 °F /  -6.9 °C 30.3in /  1025.0hPa OSO 4.7mph /  7.6km/h 10.4mph /  16.7km/h 34.5% 0in /  0.0mm
12:04 45.9 °F /  7.7 °C 19.8 °F /  -6.8 °C 30.3in /  1025.0hPa OSO 4.3mph /  6.9km/h 10.4mph /  16.7km/h 35% 0in /  0.0mm
12:09 45.9 °F /  7.7 °C 19.8 °F /  -6.8 °C 30.3in /  1025.0hPa OSO 5mph /  8km/h 10mph /  16.1km/h 35% 0in /  0.0mm
12:14 46.2 °F /  7.9 °C 19.6 °F /  -6.9 °C 30.3in /  1025.0hPa Oeste 5.4mph /  8.7km/h 9mph /  14.5km/h 34.5% 0in /  0.0mm
12:19 46.4 °F /  8 °C 19.8 °F /  -6.8 °C 30.3in /  1025.0hPa Oeste 5mph /  8.1km/h 8mph /  12.9km/h 34.4% 0in /  0.0mm
12:24 46.8 °F /  8.2 °C 20.1 °F /  -6.6 °C 30.3in /  1024.7hPa SO 4.7mph /  7.6km/h 8.5mph /  13.7km/h 34.5% 0in /  0.0mm
12:29 46.8 °F /  8.2 °C 19.8 °F /  -6.8 °C 30.3in /  1024.7hPa SO 4.7mph /  7.6km/h 10.4mph /  16.7km/h 34% 0in /  0.0mm
12:34 46.8 °F /  8.2 °C 19.9 °F /  -6.7 °C 30.3in /  1024.7hPa SO 4.7mph /  7.6km/h 10mph /  16.1km/h 34% 0in /  0.0mm
12:39 47.3 °F /  8.5 °C 20.3 °F /  -6.5 °C 30.3in /  1024.5hPa SSO 4.5mph /  7.2km/h 9mph /  14.5km/h 33.9% 0in /  0.0mm
12:44 47.5 °F /  8.6 °C 20.1 °F /  -6.6 °C 30.3in /  1024.5hPa SSO 4.3mph /  6.9km/h 10.2mph /  16.4km/h 33.5% 0in /  0.0mm
12:49 47.7 °F /  8.7 °C 19.9 °F /  -6.7 °C 30.3in /  1024.5hPa SSO 4.8mph /  7.7km/h 10.4mph /  16.7km/h 33% 0in /  0.0mm
12:54 47.7 °F /  8.7 °C 19.9 °F /  -6.7 °C 30.3in /  1024.4hPa OSO 5.2mph /  8.4km/h 9mph /  14.5km/h 33% 0in /  0.0mm
12:59 47.8 °F /  8.8 °C 19.8 °F /  -6.8 °C 30.3in /  1024.4hPa Oeste 5.2mph /  8.4km/h 10.2mph /  16.4km/h 32.5% 0in /  0.0mm
13:04 48 °F /  8.9 °C 19.6 °F /  -6.9 °C 30.3in /  1024.4hPa OSO 5.2mph /  8.4km/h 10.4mph /  16.7km/h 32.2% 0in /  0.0mm
13:09 48.2 °F /  9 °C 19.8 °F /  -6.8 °C 30.2in /  1024.0hPa OSO 5.3mph /  8.5km/h 10mph /  16.1km/h 32% 0in /  0.0mm
13:14 48.6 °F /  9.2 °C 19.8 °F /  -6.8 °C 30.2in /  1024.0hPa SO 5.4mph /  8.7km/h 10.7mph /  17.2km/h 31.6% 0in /  0.0mm
13:19 48.7 °F /  9.3 °C 19.4 °F /  -7 °C 30.2in /  1024.0hPa SSO 5mph /  8.1km/h 11.8mph /  19km/h 31% 0in /  0.0mm
13:24 48.7 °F /  9.3 °C 19.4 °F /  -7 °C 30.2in /  1023.9hPa SO 4.7mph /  7.6km/h 12mph /  19.3km/h 31% 0in /  0.0mm
13:29 48.9 °F /  9.4 °C 19.6 °F /  -6.9 °C 30.2in /  1023.9hPa SO 4.5mph /  7.2km/h 8.1mph /  13km/h 30.8% 0in /  0.0mm
13:34 49.3 °F /  9.6 °C 19.4 °F /  -7 °C 30.2in /  1023.9hPa SO 4.3mph /  6.9km/h 8mph /  12.9km/h 30.3% 0in /  0.0mm
13:39 49.5 °F /  9.7 °C 19.4 °F /  -7 °C 30.2in /  1023.8hPa OSO 3.9mph /  6.3km/h 8.1mph /  13km/h 30% 0in /  0.0mm
13:44 49.6 °F /  9.8 °C 19.4 °F /  -7 °C 30.2in /  1023.8hPa SO 3.6mph /  5.8km/h 8.1mph /  13km/h 30% 0in /  0.0mm
13:49 49.8 °F /  9.9 °C 19.8 °F /  -6.8 °C 30.2in /  1023.8hPa SO 3.6mph /  5.8km/h 8.1mph /  13km/h 30.2% 0in /  0.0mm
13:54 50 °F /  10 °C 19.8 °F /  -6.8 °C 30.2in /  1023.7hPa SO 3.6mph /  5.8km/h 8.1mph /  13km/h 30% 0in /  0.0mm
13:59 50.2 °F /  10.1 °C 19.9 °F /  -6.7 °C 30.2in /  1023.7hPa SSO 4.6mph /  7.4km/h 8.1mph /  13km/h 30% 0in /  0.0mm
14:04 50.2 °F /  10.1 °C 19.9 °F /  -6.7 °C 30.2in /  1023.7hPa SO 5.2mph /  8.4km/h 8mph /  12.9km/h 30% 0in /  0.0mm
14:09 50.4 °F /  10.2 °C 19.8 °F /  -6.8 °C 30.2in /  1023.6hPa Oeste 4.9mph /  7.9km/h 7mph /  11.3km/h 29.4% 0in /  0.0mm
14:14 50.5 °F /  10.3 °C 19.8 °F /  -6.8 °C 30.2in /  1023.6hPa Oeste 4.7mph /  7.6km/h 7mph /  11.3km/h 29.6% 0in /  0.0mm
14:19 50.7 °F /  10.4 °C 19.6 °F /  -6.9 °C 30.2in /  1023.7hPa SO 4.1mph /  6.6km/h 8.1mph /  13km/h 29.1% 0in /  0.0mm
14:24 50.7 °F /  10.4 °C 19.6 °F /  -6.9 °C 30.2in /  1023.7hPa SO 3.6mph /  5.8km/h 8mph /  12.9km/h 29% 0in /  0.0mm
14:29 50.9 °F /  10.5 °C 19.8 °F /  -6.8 °C 30.2in /  1023.7hPa OSO 3.3mph /  5.3km/h 7.4mph /  11.9km/h 29% 0in /  0.0mm
14:34 51.1 °F /  10.6 °C 19.9 °F /  -6.7 °C 30.2in /  1023.7hPa ONO 3.1mph /  5km/h 7mph /  11.3km/h 29% 0in /  0.0mm
14:39 51.4 °F /  10.8 °C 20.1 °F /  -6.6 °C 30.2in /  1023.6hPa SO 3mph /  4.8km/h 8.1mph /  13km/h 29% 0in /  0.0mm
14:44 51.6 °F /  10.9 °C 20.3 °F /  -6.5 °C 30.2in /  1023.6hPa SSO 2.9mph /  4.6km/h 8mph /  12.9km/h 29% 0in /  0.0mm
14:49 52.2 °F /  11.2 °C 19.9 °F /  -6.7 °C 30.2in /  1023.6hPa ONO 2.9mph /  4.7km/h 8.5mph /  13.7km/h 28.1% 0in /  0.0mm
14:54 52.2 °F /  11.2 °C 19.9 °F /  -6.7 °C 30.2in /  1023.6hPa NO 2.9mph /  4.6km/h 9mph /  14.5km/h 28% 0in /  0.0mm
14:59 52.3 °F /  11.3 °C 20.1 °F /  -6.6 °C 30.2in /  1023.6hPa NNO 3.5mph /  5.7km/h 8mph /  12.9km/h 28% 0in /  0.0mm
15:04 52.3 °F /  11.3 °C 20.3 °F /  -6.5 °C 30.2in /  1023.7hPa NNE 4mph /  6.5km/h 6mph /  9.7km/h 28.1% 0in /  0.0mm
15:09 52.5 °F /  11.4 °C 20.3 °F /  -6.5 °C 30.2in /  1023.7hPa North 3.1mph /  5km/h 5mph /  8km/h 28% 0in /  0.0mm
15:14 52.9 °F /  11.6 °C 20.3 °F /  -6.5 °C 30.2in /  1023.7hPa ONO 2.4mph /  3.9km/h 5.2mph /  8.4km/h 27.7% 0in /  0.0mm
15:19 53.1 °F /  11.7 °C 19.9 °F /  -6.7 °C 30.2in /  1023.7hPa SO 2.7mph /  4.3km/h 7.4mph /  11.9km/h 27.1% 0in /  0.0mm
15:24 53.1 °F /  11.7 °C 19.9 °F /  -6.7 °C 30.2in /  1023.4hPa SSO 2.9mph /  4.7km/h 8.5mph /  13.7km/h 27% 0in /  0.0mm
15:29 53.1 °F /  11.7 °C 19.9 °F /  -6.7 °C 30.2in /  1023.4hPa OSO 3.7mph /  5.9km/h 9mph /  14.5km/h 27% 0in /  0.0mm
15:34 53.2 °F /  11.8 °C 20.1 °F /  -6.6 °C 30.2in /  1023.4hPa SO 4.3mph /  6.9km/h 9mph /  14.5km/h 27% 0in /  0.0mm
15:39 53.2 °F /  11.8 °C 20.1 °F /  -6.6 °C 30.2in /  1023.3hPa SO 4.3mph /  6.9km/h 7mph /  11.3km/h 27% 0in /  0.0mm
15:44 53.4 °F /  11.9 °C 20.1 °F /  -6.6 °C 30.2in /  1023.3hPa Oeste 4.3mph /  6.9km/h 6.2mph /  10km/h 27% 0in /  0.0mm
15:49 53.2 °F /  11.8 °C 20.1 °F /  -6.6 °C 30.2in /  1023.4hPa Oeste 3.9mph /  6.3km/h 6.9mph /  11.1km/h 27% 0in /  0.0mm
15:54 53.2 °F /  11.8 °C 20.1 °F /  -6.6 °C 30.2in /  1023.4hPa Oeste 3.6mph /  5.8km/h 7mph /  11.3km/h 27% 0in /  0.0mm
15:59 53.6 °F /  12 °C 20.5 °F /  -6.4 °C 30.2in /  1023.4hPa OSO 3.3mph /  5.3km/h 6.9mph /  11.1km/h 27% 0in /  0.0mm
16:04 54 °F /  12.2 °C 20.7 °F /  -6.3 °C 30.2in /  1023.5hPa Sur 3.1mph /  5km/h 7mph /  11.3km/h 27% 0in /  0.0mm
16:09 54.1 °F /  12.3 °C 19.9 °F /  -6.7 °C 30.2in /  1023.5hPa OSO 3.1mph /  5km/h 6.4mph /  10.3km/h 26% 0in /  0.0mm
16:14 54.3 °F /  12.4 °C 19.8 °F /  -6.8 °C 30.2in /  1023.5hPa Oeste 3.1mph /  5km/h 7mph /  11.3km/h 25.7% 0in /  0.0mm
16:19 54.3 °F /  12.4 °C 19.8 °F /  -6.8 °C 30.2in /  1023.6hPa SO 3.4mph /  5.5km/h 6mph /  9.7km/h 25.6% 0in /  0.0mm
16:24 54.7 °F /  12.6 °C 19.9 °F /  -6.7 °C 30.2in /  1023.6hPa OSO 3.6mph /  5.8km/h 6mph /  9.7km/h 25.5% 0in /  0.0mm
16:29 54.9 °F /  12.7 °C 19.9 °F /  -6.7 °C 30.2in /  1023.6hPa SO 2.7mph /  4.3km/h 5mph /  8km/h 25.3% 0in /  0.0mm
16:34 55 °F /  12.8 °C 19.9 °F /  -6.7 °C 30.2in /  1023.6hPa SO 2mph /  3.2km/h 6.2mph /  10km/h 25.2% 0in /  0.0mm
16:39 55 °F /  12.8 °C 19 °F /  -7.2 °C 30.2in /  1023.6hPa SO 2.6mph /  4.2km/h 6mph /  9.7km/h 24.2% 0in /  0.0mm
16:44 54.9 °F /  12.7 °C 19.8 °F /  -6.8 °C 30.2in /  1023.6hPa SSO 3.1mph /  5km/h 6.2mph /  10km/h 25% 0in /  0.0mm
16:49 54.9 °F /  12.7 °C 19.6 °F /  -6.9 °C 30.2in /  1023.6hPa SSO 3.1mph /  5km/h 6mph /  9.7km/h 24.9% 0in /  0.0mm
16:54 54.9 °F /  12.7 °C 18.7 °F /  -7.4 °C 30.2in /  1023.6hPa SO 3.1mph /  5km/h 6mph /  9.7km/h 24% 0in /  0.0mm
16:59 54.9 °F /  12.7 °C 19 °F /  -7.2 °C 30.2in /  1023.6hPa SO 2.7mph /  4.3km/h 6mph /  9.7km/h 24.2% 0in /  0.0mm
17:04 54.9 °F /  12.7 °C 19.2 °F /  -7.1 °C 30.2in /  1023.6hPa SSO 2.4mph /  3.9km/h 7.4mph /  11.9km/h 24.5% 0in /  0.0mm
17:09 54.5 °F /  12.5 °C 18.9 °F /  -7.3 °C 30.2in /  1023.6hPa Sur 3.4mph /  5.4km/h 7.6mph /  12.2km/h 24.5% 0in /  0.0mm
17:14 54.3 °F /  12.4 °C 18.7 °F /  -7.4 °C 30.2in /  1023.6hPa SSO 4mph /  6.5km/h 8.1mph /  13km/h 24.5% 0in /  0.0mm
17:19 54.3 °F /  12.4 °C 18.9 °F /  -7.3 °C 30.2in /  1023.7hPa SSO 4.2mph /  6.7km/h 8mph /  12.9km/h 24.7% 0in /  0.0mm
17:24 54.3 °F /  12.4 °C 18.3 °F /  -7.6 °C 30.2in /  1023.7hPa Sur 4.3mph /  6.9km/h 6mph /  9.7km/h 24.1% 0in /  0.0mm
17:29 54.3 °F /  12.4 °C 18.1 °F /  -7.7 °C 30.2in /  1023.7hPa Sur 3.7mph /  5.9km/h 5mph /  8km/h 24% 0in /  0.0mm
17:34 54.3 °F /  12.4 °C 18.9 °F /  -7.3 °C 30.2in /  1023.9hPa Sur 3.1mph /  5km/h 5mph /  8km/h 24.7% 0in /  0.0mm
17:39 54.3 °F /  12.4 °C 19.6 °F /  -6.9 °C 30.2in /  1023.9hPa Sur 3mph /  4.8km/h 5.9mph /  9.5km/h 25.4% 0in /  0.0mm
17:44 54.1 °F /  12.3 °C 19.4 °F /  -7 °C 30.2in /  1023.9hPa Sur 2.9mph /  4.6km/h 6mph /  9.7km/h 25.4% 0in /  0.0mm
17:49 54.1 °F /  12.3 °C 19.9 °F /  -6.7 °C 30.2in /  1023.9hPa SSE 3mph /  4.8km/h 5.2mph /  8.4km/h 26% 0in /  0.0mm
17:54 54 °F /  12.2 °C 20.3 °F /  -6.5 °C 30.2in /  1023.9hPa Sur 3.1mph /  5km/h 5.2mph /  8.4km/h 26.6% 0in /  0.0mm
17:59 53.6 °F /  12 °C 20.3 °F /  -6.5 °C 30.2in /  1023.9hPa Sur 3.7mph /  5.9km/h 5.9mph /  9.5km/h 27% 0in /  0.0mm
18:04 53.2 °F /  11.8 °C 19.9 °F /  -6.7 °C 30.2in /  1023.9hPa Sur 4mph /  6.5km/h 6mph /  9.7km/h 27% 0in /  0.0mm
18:09 52.9 °F /  11.6 °C 20.7 °F /  -6.3 °C 30.2in /  1023.9hPa Sur 3.8mph /  6.1km/h 6mph /  9.7km/h 28.1% 0in /  0.0mm
18:14 52.7 °F /  11.5 °C 21.6 °F /  -5.8 °C 30.2in /  1023.9hPa Sur 3.6mph /  5.8km/h 5mph /  8km/h 29.4% 0in /  0.0mm
18:19 52.3 °F /  11.3 °C 21.9 °F /  -5.6 °C 30.2in /  1024.0hPa Sur 3.2mph /  5.2km/h 5mph /  8km/h 30% 0in /  0.0mm
18:24 52.2 °F /  11.2 °C 23 °F /  -5 °C 30.2in /  1024.0hPa SSE 2.9mph /  4.6km/h 6.9mph /  11.1km/h 31.9% 0in /  0.0mm
18:29 51.4 °F /  10.8 °C 23.7 °F /  -4.6 °C 30.2in /  1024.0hPa SSE 3mph /  4.8km/h 7mph /  11.3km/h 33.6% 0in /  0.0mm
18:34 51.1 °F /  10.6 °C 24.1 °F /  -4.4 °C 30.2in /  1024.2hPa SE 3.1mph /  5km/h 5mph /  8km/h 34.6% 0in /  0.0mm
18:39 50.4 °F /  10.2 °C 24.1 °F /  -4.4 °C 30.2in /  1024.2hPa SE 2.5mph /  4km/h 6.9mph /  11.1km/h 35.5% 0in /  0.0mm
18:44 49.5 °F /  9.7 °C 23.5 °F /  -4.7 °C 30.2in /  1024.2hPa SE 2mph /  3.2km/h 8.1mph /  13km/h 36% 0in /  0.0mm
18:49 48.7 °F /  9.3 °C 23.7 °F /  -4.6 °C 30.3in /  1024.4hPa SSE 3.5mph /  5.7km/h 8mph /  12.9km/h 37.2% 0in /  0.0mm
18:54 48.4 °F /  9.1 °C 23.9 °F /  -4.5 °C 30.3in /  1024.4hPa SSE 4.7mph /  7.6km/h 7mph /  11.3km/h 38% 0in /  0.0mm
18:59 48.4 °F /  9.1 °C 24.3 °F /  -4.3 °C 30.3in /  1024.4hPa SSE 4.3mph /  6.9km/h 7mph /  11.3km/h 38.8% 0in /  0.0mm
19:04 48 °F /  8.9 °C 24.6 °F /  -4.1 °C 30.3in /  1024.4hPa SSE 4mph /  6.5km/h 6mph /  9.7km/h 39.4% 0in /  0.0mm
19:09 48 °F /  8.9 °C 24.3 °F /  -4.3 °C 30.3in /  1024.4hPa SSE 3.8mph /  6.1km/h 6mph /  9.7km/h 39.1% 0in /  0.0mm
19:14 48 °F /  8.9 °C 24.4 °F /  -4.2 °C 30.3in /  1024.4hPa SSE 3.6mph /  5.8km/h 6mph /  9.7km/h 39.4% 0in /  0.0mm
19:19 47.8 °F /  8.8 °C 24.8 °F /  -4 °C 30.3in /  1024.6hPa SE 3.4mph /  5.4km/h 5.8mph /  9.3km/h 40% 0in /  0.0mm
19:24 47.7 °F /  8.7 °C 24.8 °F /  -4 °C 30.3in /  1024.6hPa SE 3.1mph /  5km/h 6mph /  9.7km/h 40.5% 0in /  0.0mm
19:29 47.3 °F /  8.5 °C 25 °F /  -3.9 °C 30.3in /  1024.6hPa SE 2.2mph /  3.5km/h 4mph /  6.4km/h 41.3% 0in /  0.0mm
19:34 46.9 °F /  8.3 °C 24.4 °F /  -4.2 °C 30.3in /  1024.7hPa SE 1.4mph /  2.2km/h 3.5mph /  5.6km/h 40.9% 0in /  0.0mm
19:39 46.9 °F /  8.3 °C 24.4 °F /  -4.2 °C 30.3in /  1024.7hPa SE 1.7mph /  2.8km/h 3.6mph /  5.8km/h 40.9% 0in /  0.0mm
19:44 46.9 °F /  8.3 °C 23.7 °F /  -4.6 °C 30.3in /  1024.7hPa SE 2mph /  3.2km/h 4mph /  6.4km/h 39.7% 0in /  0.0mm
19:49 46.9 °F /  8.3 °C 24.3 °F /  -4.3 °C 30.3in /  1024.9hPa SSE 1.9mph /  3km/h 4.6mph /  7.4km/h 40.7% 0in /  0.0mm
19:54 46.8 °F /  8.2 °C 25 °F /  -3.9 °C 30.3in /  1024.9hPa Oeste 1.8mph /  2.9km/h 5mph /  8km/h 42% 0in /  0.0mm
19:59 46.4 °F /  8 °C 24.4 °F /  -4.2 °C 30.3in /  1024.9hPa Oeste 2.5mph /  4km/h 5mph /  8km/h 42% 0in /  0.0mm
20:04 46 °F /  7.8 °C 24.6 °F /  -4.1 °C 30.3in /  1025.1hPa ONO 2.9mph /  4.6km/h 4mph /  6.4km/h 42.6% 0in /  0.0mm
20:09 46 °F /  7.8 °C 25 °F /  -3.9 °C 30.3in /  1025.1hPa Oeste 2.4mph /  3.9km/h 4.6mph /  7.4km/h 43.4% 0in /  0.0mm
20:14 45.9 °F /  7.7 °C 25.2 °F /  -3.8 °C 30.3in /  1025.1hPa OSO 2mph /  3.2km/h 5.8mph /  9.3km/h 44% 0in /  0.0mm
20:19 46 °F /  7.8 °C 24.8 °F /  -4 °C 30.3in /  1025.1hPa SO 2.9mph /  4.7km/h 6.9mph /  11.1km/h 43% 0in /  0.0mm
20:24 46.2 °F /  7.9 °C 24.6 °F /  -4.1 °C 30.3in /  1025.1hPa SSO 3.6mph /  5.8km/h 7mph /  11.3km/h 42.2% 0in /  0.0mm
20:29 46.6 °F /  8.1 °C 24.8 °F /  -4 °C 30.3in /  1025.1hPa Sur 3.6mph /  5.8km/h 6mph /  9.7km/h 42.1% 0in /  0.0mm
20:34 46.4 °F /  8 °C 24.1 °F /  -4.4 °C 30.3in /  1025.2hPa SSE 3.6mph /  5.8km/h 6.9mph /  11.1km/h 41.4% 0in /  0.0mm
20:39 45.9 °F /  7.7 °C 25.3 °F /  -3.7 °C 30.3in /  1025.2hPa SE 3.6mph /  5.8km/h 7mph /  11.3km/h 44.5% 0in /  0.0mm
20:44 44.8 °F /  7.1 °C 25.5 °F /  -3.6 °C 30.3in /  1025.2hPa SE 3.6mph /  5.8km/h 7mph /  11.3km/h 46.6% 0in /  0.0mm
20:49 44.2 °F /  6.8 °C 25.5 °F /  -3.6 °C 30.3in /  1025.3hPa SE 3.2mph /  5.2km/h 5mph /  8km/h 47.6% 0in /  0.0mm
20:54 44.1 °F /  6.7 °C 25.5 °F /  -3.6 °C 30.3in /  1025.3hPa Sur 2.9mph /  4.6km/h 3.6mph /  5.8km/h 48% 0in /  0.0mm
20:59 44.1 °F /  6.7 °C 25.7 °F /  -3.5 °C 30.3in /  1025.3hPa Sur 2.4mph /  3.8km/h 4.6mph /  7.4km/h 48.2% 0in /  0.0mm
21:04 44.1 °F /  6.7 °C 25.3 °F /  -3.7 °C 30.3in /  1025.5hPa Sur 2mph /  3.2km/h 5mph /  8km/h 47.3% 0in /  0.0mm
21:09 44.2 °F /  6.8 °C 25.3 °F /  -3.7 °C 30.3in /  1025.5hPa OSO 2mph /  3.2km/h 5.8mph /  9.3km/h 47% 0in /  0.0mm
21:14 44.2 °F /  6.8 °C 25.3 °F /  -3.7 °C 30.3in /  1025.5hPa OSO 2mph /  3.2km/h 6mph /  9.7km/h 47% 0in /  0.0mm
21:19 44.6 °F /  7 °C 25.7 °F /  -3.5 °C 30.3in /  1025.5hPa OSO 2.9mph /  4.6km/h 6mph /  9.7km/h 47% 0in /  0.0mm
21:24 44.8 °F /  7.1 °C 25.9 °F /  -3.4 °C 30.3in /  1025.5hPa OSO 3.6mph /  5.8km/h 5.2mph /  8.4km/h 47% 0in /  0.0mm
21:29 45 °F /  7.2 °C 26.1 °F /  -3.3 °C 30.3in /  1025.5hPa SSE 3.3mph /  5.3km/h 5.9mph /  9.5km/h 47.5% 0in /  0.0mm
21:34 44.2 °F /  6.8 °C 26.2 °F /  -3.2 °C 30.3in /  1025.7hPa SSE 3.1mph /  5km/h 6.9mph /  11.1km/h 49% 0in /  0.0mm
21:39 43.3 °F /  6.3 °C 26.1 °F /  -3.3 °C 30.3in /  1025.7hPa SE 3.7mph /  6km/h 9.2mph /  14.8km/h 50.5% 0in /  0.0mm
21:44 42.6 °F /  5.9 °C 26.2 °F /  -3.2 °C 30.3in /  1025.7hPa SSE 4.3mph /  6.9km/h 9.7mph /  15.6km/h 52.1% 0in /  0.0mm
21:49 42.1 °F /  5.6 °C 26.4 °F /  -3.1 °C 30.3in /  1025.8hPa SSE 4.8mph /  7.7km/h 10mph /  16.1km/h 53.6% 0in /  0.0mm
21:54 41.5 °F /  5.3 °C 26.6 °F /  -3 °C 30.3in /  1025.8hPa SSE 5.2mph /  8.4km/h 10mph /  16.1km/h 54.8% 0in /  0.0mm
21:59 41.5 °F /  5.3 °C 27 °F /  -2.8 °C 30.3in /  1025.8hPa SSE 5.3mph /  8.6km/h 10.4mph /  16.7km/h 56% 0in /  0.0mm
22:04 41.5 °F /  5.3 °C 27 °F /  -2.8 °C 30.3in /  1025.8hPa SSE 5.4mph /  8.7km/h 9.2mph /  14.8km/h 56% 0in /  0.0mm
22:09 41.7 °F /  5.4 °C 27.1 °F /  -2.7 °C 30.3in /  1025.8hPa Sur 5.4mph /  8.7km/h 9.2mph /  14.8km/h 56% 0in /  0.0mm
22:14 42.1 °F /  5.6 °C 27 °F /  -2.8 °C 30.3in /  1025.8hPa SSO 5.4mph /  8.7km/h 9mph /  14.5km/h 55% 0in /  0.0mm
22:19 42.3 °F /  5.7 °C 27 °F /  -2.8 °C 30.3in /  1025.9hPa SSO 5.7mph /  9.2km/h 9mph /  14.5km/h 54.5% 0in /  0.0mm
22:24 42.4 °F /  5.8 °C 27.1 °F /  -2.7 °C 30.3in /  1025.9hPa SSO 5.9mph /  9.5km/h 8.1mph /  13km/h 54% 0in /  0.0mm
22:29 42.8 °F /  6 °C 26.8 °F /  -2.9 °C 30.3in /  1025.9hPa SSO 5.2mph /  8.4km/h 8mph /  12.9km/h 53.1% 0in /  0.0mm
22:34 43 °F /  6.1 °C 27 °F /  -2.8 °C 30.3in /  1025.9hPa SSO 4.7mph /  7.6km/h 7mph /  11.3km/h 53% 0in /  0.0mm
22:39 43.2 °F /  6.2 °C 26.8 °F /  -2.9 °C 30.3in /  1025.8hPa SSO 4.3mph /  6.9km/h 6.9mph /  11.1km/h 52.2% 0in /  0.0mm
22:44 43.3 °F /  6.3 °C 26.8 °F /  -2.9 °C 30.3in /  1025.8hPa SO 4mph /  6.5km/h 8.1mph /  13km/h 52% 0in /  0.0mm
22:49 43.3 °F /  6.3 °C 26.4 °F /  -3.1 °C 30.3in /  1025.9hPa OSO 4.2mph /  6.7km/h 8mph /  12.9km/h 51% 0in /  0.0mm
22:54 43.3 °F /  6.3 °C 26.4 °F /  -3.1 °C 30.3in /  1025.9hPa OSO 4.3mph /  6.9km/h 6mph /  9.7km/h 51% 0in /  0.0mm
22:59 43.3 °F /  6.3 °C 26.4 °F /  -3.1 °C 30.3in /  1025.9hPa SO 3.9mph /  6.2km/h 5.8mph /  9.3km/h 51% 0in /  0.0mm
23:04 43.3 °F /  6.3 °C 26.6 °F /  -3 °C 30.3in /  1026.2hPa SO 3.6mph /  5.8km/h 6mph /  9.7km/h 51.2% 0in /  0.0mm
23:09 43.3 °F /  6.3 °C 27 °F /  -2.8 °C 30.3in /  1026.2hPa SO 3.6mph /  5.8km/h 5.2mph /  8.4km/h 52% 0in /  0.0mm
23:14 43.5 °F /  6.4 °C 27 °F /  -2.8 °C 30.3in /  1026.2hPa SO 3.6mph /  5.8km/h 5mph /  8km/h 52% 0in /  0.0mm
23:19 43.3 °F /  6.3 °C 26.6 °F /  -3 °C 30.3in /  1026.2hPa OSO 3.2mph /  5.2km/h 5mph /  8km/h 51.5% 0in /  0.0mm
23:24 43 °F /  6.1 °C 26.6 °F /  -3 °C 30.3in /  1026.2hPa OSO 2.9mph /  4.6km/h 5mph /  8km/h 52.2% 0in /  0.0mm
23:29 42.6 °F /  5.9 °C 26.6 °F /  -3 °C 30.3in /  1026.2hPa OSO 2.4mph /  3.8km/h 4mph /  6.4km/h 53% 0in /  0.0mm
23:34 42.3 °F /  5.7 °C 26.8 °F /  -2.9 °C 30.3in /  1026.4hPa OSO 2mph /  3.2km/h 4mph /  6.4km/h 53.8% 0in /  0.0mm
23:39 42.1 °F /  5.6 °C 26.6 °F /  -3 °C 30.3in /  1026.4hPa OSO 2mph /  3.2km/h 5.9mph /  9.5km/h 54% 0in /  0.0mm
23:44 41.7 °F /  5.4 °C 26.4 °F /  -3.1 °C 30.3in /  1026.4hPa OSO 2mph /  3.2km/h 6mph /  9.7km/h 54.2% 0in /  0.0mm
23:49 41.7 °F /  5.4 °C 26.4 °F /  -3.1 °C 30.3in /  1026.6hPa OSO 2.6mph /  4.2km/h 6mph /  9.7km/h 54.4% 0in /  0.0mm
23:54 41.7 °F /  5.4 °C 26.6 °F /  -3 °C 30.3in /  1026.6hPa SO 3.1mph /  5km/h 6.4mph /  10.3km/h 54.8% 0in /  0.0mm
23:59 41.7 °F /  5.4 °C 26.4 °F /  -3.1 °C 30.3in /  1026.6hPa SO 3.7mph /  5.9km/h 7.4mph /  11.9km/h 54.3% 0in /  0.0mm
Murcia-Puente Tocinos, España
Compliments of Weather Underground - 3.5 mb

La estación de MeteoMurcia.com, publica sus datos en los siguientes proyectos:

Weather Underground PWS IMURCIAP2 Meteoclimatic www.awekas.at

W3Counter
Web Analytics